• Join FlightAware (Why Join?)
  • Login
  • US Flag 
05:21AM EDT


 

Airport Tracker/Info


-or-


 

Live Flight TrackerFlight Track Log ✈ VH-YEN ✈ 18-May-2013 ✈ YMRY / MYA - YSCN / CDU

Flight Track Log - Related Links

Times and Time Zones

All times are in EDT time to prevent confusion due to time zone crossing. See the VH-YEN flight status page for this flight to view local times or setup timezone preferences in your user account.

Time Position Orientation Groundspeed Altitude Reporting Facility
EDT Latitude Longitude Course Direction KTS MPH feet Rate Location/Type
09:15PM -35.8079 150.1305 353° North 8,000  Level Aus ATC (Calculated)
09:16PM -35.8079 150.1305 353° North 8,000 -600 Level Aus ATC (Calculated)
09:18PM -35.7646 150.1297 359° North  Level FlightAware Approximate
09:19PM -35.7404 150.1292 359° North  Level FlightAware Approximate
09:19PM -35.7372 150.1191 359° North 107 123 5,800  Level Aus ATC (RADAR)
09:20PM -35.7058 150.1148 354° North 112 129 6,400 600 Climbing Aus ATC (RADAR)
09:20PM -35.6926 150.1136 356° North 112 129 6,700 720 Climbing Aus ATC (RADAR)
09:21PM -35.6788 150.1141 North 114 131 7,000 660 Climbing Aus ATC (RADAR)
09:21PM -35.6599 150.1135 359° North 116 133 7,400 660 Climbing Aus ATC (RADAR)
09:22PM -35.6330 150.1100 354° North 116 133 8,000 540 Climbing Aus ATC (RADAR)
09:23PM -35.6148 150.1035 344° North 119 137 8,200 120 Climbing Aus ATC (RADAR)
09:23PM -35.5853 150.0948 347° North 143 165 8,200  Level Aus ATC (RADAR)
09:24PM -35.5681 150.0891 345° North 150 173 8,200 -120 Level Aus ATC (RADAR)
09:25PM -35.5203 150.0760 347° North 158 182 8,100 -120 Descending Aus ATC (RADAR)
09:25PM -35.5009 150.0755 359° North 160 184 8,100  Level Aus ATC (RADAR)
09:26PM -35.4809 150.0762 North 168 193 8,100  Level Aus ATC (RADAR)
09:26PM -35.4533 150.0770 North 172 198 8,100  Level Aus ATC (RADAR)
09:27PM -35.4178 150.0772 360° North 172 198 8,100  Level Aus ATC (RADAR)
09:28PM -35.3906 150.0751 356° North 170 196 8,100 60 Level Aus ATC (RADAR)
09:28PM -35.3551 150.0700 353° North 171 197 8,200  Climbing Aus ATC (RADAR)
09:29PM -35.3359 150.0670 353° North 169 194 8,100 -120 Descending Aus ATC (RADAR)
09:30PM -35.2964 150.0612 353° North 173 199 8,100  Level Aus ATC (RADAR)
09:30PM -35.2692 150.0575 354° North 169 194 8,100 120 Level Aus ATC (RADAR)
09:31PM -35.2420 150.0538 354° North 168 193 8,300 60 Climbing Aus ATC (RADAR)
09:32PM -35.2068 150.0484 353° North 171 197 8,200 -120 Descending Aus ATC (RADAR)
09:32PM -35.1875 150.0444 350° North 169 194 8,200 60 Level Aus ATC (RADAR)
09:33PM -35.1606 150.0392 351° North 168 193 8,300 -120 Climbing Aus ATC (RADAR)
09:33PM -35.1249 150.0377 358° North 172 198 8,100 -120 Descending Aus ATC (RADAR)
09:34PM -35.0970 150.0409 North 172 198 8,200 60 Climbing Aus ATC (RADAR)
09:35PM -35.0565 150.0460 North 176 203 8,200  Level Aus ATC (RADAR)
09:35PM -35.0281 150.0493 North 176 203 8,200 -120 Level Aus ATC (RADAR)
09:36PM -34.9997 150.0529 North 176 203 8,100  Descending Aus ATC (RADAR)
09:37PM -34.9594 150.0576 North 176 203 8,200 60 Climbing Aus ATC (RADAR)
09:37PM -34.9394 150.0596 North 174 200 8,200  Level Aus ATC (RADAR)
09:38PM -34.9112 150.0625 North 176 203 8,200 -120 Level Aus ATC (RADAR)
09:39PM -34.8749 150.0660 North 175 201 8,100  Descending Aus ATC (RADAR)
09:39PM -34.8463 150.0686 North 175 201 8,200 60 Climbing Aus ATC (RADAR)
09:40PM -34.8059 150.0723 North 175 201 8,200  Level Aus ATC (RADAR)
09:40PM -34.7814 150.0746 North 176 203 8,200  Level Aus ATC (RADAR)
09:41PM -34.7483 150.0779 North 180 207 8,200 -120 Level Aus ATC (RADAR)
09:42PM -34.7201 150.0806 North 176 203 8,100  Descending Aus ATC (RADAR)
09:42PM -34.6927 150.0827 North 168 193 8,200 60 Climbing Aus ATC (RADAR)
09:43PM -34.6657 150.0713 341° North 171 197 8,200  Level Aus ATC (RADAR)
09:44PM -34.6327 150.0722 North 180 207 8,200  Level Aus ATC (RADAR)
09:44PM -34.6121 150.0767 10° North 181 208 8,200  Level Aus ATC (RADAR)
09:45PM -34.5832 150.0798 North 180 207 8,200  Level Aus ATC (RADAR)
09:46PM -34.5330 150.0832 North 182 209 8,200  Level Aus ATC (RADAR)
09:46PM -34.5121 150.0852 North 180 207 8,200  Level Aus ATC (RADAR)
09:47PM -34.4833 150.0862 North 179 206 8,200  Level Aus ATC (RADAR)
09:47PM -34.4460 150.0899 North 179 206 8,200  Level Aus ATC (RADAR)
09:48PM -34.4191 150.1039 23° Northeast 184 212 8,200 -480 Level Aus ATC (RADAR)
09:49PM -34.3994 150.1451 60° Northeast 184 212 7,600 -600 Descending Aus ATC (RADAR)
09:49PM -34.3856 150.1659 51° Northeast 186 214 7,500 -240 Descending Aus ATC (RADAR)
09:50PM -34.3631 150.1890 40° Northeast 179 206 7,400 -480 Descending Aus ATC (RADAR)
09:51PM -34.3256 150.2325 44° Northeast 184 212 6,800 -660 Descending Aus ATC (RADAR)
09:51PM -34.3159 150.2436 43° Northeast 187 215 6,600 -600 Descending Aus ATC (RADAR)
09:51PM -34.2928 150.2676 41° Northeast 186 214 6,300 -480 Descending Aus ATC (RADAR)
09:52PM -34.2657 150.3006 45° Northeast 182 209 6,000 -360 Descending Aus ATC (RADAR)
09:53PM -34.2410 150.3279 42° Northeast 177 204 5,800 -420 Descending Aus ATC (RADAR)
09:54PM -34.2181 150.3564 46° Northeast 175 201 5,500 -300 Descending Aus ATC (RADAR)
09:54PM -34.2005 150.3751 41° Northeast 167 192 5,500 60 Level Aus ATC (RADAR)
09:55PM -34.1822 150.3973 45° Northeast 159 183 5,600  Climbing Aus ATC (RADAR)
09:56PM -34.1532 150.4458 54° Northeast 140 161 5,600 -180 Level Aus ATC (RADAR)
09:56PM -34.1456 150.4604 58° Northeast 125 144 5,400 -900 Descending Aus ATC (RADAR)
09:57PM -34.1344 150.4851 61° Northeast 138 159 4,700 -1,140 Descending Aus ATC (RADAR)
09:58PM -34.1198 150.5148 59° Northeast 130 150 3,900 -1,020 Descending Aus ATC (RADAR)
09:58PM -34.1095 150.5370 61° Northeast 126 145 3,400 -960 Descending Aus ATC (RADAR)
09:59PM -34.0992 150.5586 60° Northeast 122 140 2,800 -900 Descending Aus ATC (RADAR)
09:59PM -34.0885 150.5801 59° Northeast 123 142 2,400 -780 Descending Aus ATC (RADAR)
10:00PM -34.0789 150.5999 60° Northeast 115 132 1,900 -720 Descending Aus ATC (RADAR)
10:01PM -34.0628 150.6324 59° Northeast 105 121 1,300 -540 Descending Aus ATC (RADAR)
10:01PM -34.0572 150.6456 63° Northeast 104 120 1,200 -120 Descending Aus ATC (RADAR)
10:02PM -34.0469 150.6586 46° Northeast 93 107 1,200  Level Aus ATC (RADAR)
10:03PM -34.0349 150.6767 51° Northeast 92 106 1,200 -180 Level Aus ATC (RADAR)
10:03PM -34.0270 150.6953 63° Northeast 104 120 1,000 -300 Descending Aus ATC (RADAR)
10:04PM -34.0283 150.7112 96° East 70 81 800 -420 Descending Aus ATC (RADAR)
10:04PM -34.0319 150.7029 242° Southwest 65 75 500 -540 Descending Aus ATC (RADAR)
10:05PM -34.0364 150.6919 243° Southwest 63 72 300 -360 Descending Aus ATC (RADAR)
10:08PM -34.0383 150.6895 224° Southwest -120 Descending Aus ATC (Calculated)
10:10PM -34.0403 150.6872 224° Southwest  Level Estimated
10:11PM -34.0403 150.6872 40° Northeast  Level Estimated
10:12PM -34.0403 150.6872 40° Northeast  Level Estimated
10:13PM -34.0403 150.6872 40° Northeast  Level Estimated
10:14PM -34.0403 150.6872 40° Northeast  Level Estimated
10:15PM -34.0403 150.6872 40° Northeast  Level Estimated
10:16PM -34.0403 150.6872 40° Northeast  Level Estimated